sensor_id;sensor_type;location;lat;lon;timestamp;pressure;altitude;pressure_sealevel;temperature
22828;BMP180;11580;52.562;13.418;2022-08-21T00:00:50;100697.00;;;23.80
22828;BMP180;11580;52.562;13.418;2022-08-21T00:03:18;100683.00;;;23.70
22828;BMP180;11580;52.562;13.418;2022-08-21T00:05:49;100699.00;;;23.70
22828;BMP180;11580;52.562;13.418;2022-08-21T00:08:17;100696.00;;;23.70
22828;BMP180;11580;52.562;13.418;2022-08-21T00:10:46;100694.00;;;23.60
22828;BMP180;11580;52.562;13.418;2022-08-21T00:13:15;100697.00;;;23.60
22828;BMP180;11580;52.562;13.418;2022-08-21T00:15:44;100698.00;;;23.60
22828;BMP180;11580;52.562;13.418;2022-08-21T00:18:11;100694.00;;;23.60
22828;BMP180;11580;52.562;13.418;2022-08-21T00:20:40;100705.00;;;23.60
22828;BMP180;11580;52.562;13.418;2022-08-21T00:23:09;100691.00;;;23.50
22828;BMP180;11580;52.562;13.418;2022-08-21T00:25:37;100690.00;;;23.50
22828;BMP180;11580;52.562;13.418;2022-08-21T00:28:05;100680.00;;;23.50
22828;BMP180;11580;52.562;13.418;2022-08-21T00:30:33;100681.00;;;23.40
22828;BMP180;11580;52.562;13.418;2022-08-21T00:33:03;100684.00;;;23.40
22828;BMP180;11580;52.562;13.418;2022-08-21T00:35:35;100671.00;;;23.40
22828;BMP180;11580;52.562;13.418;2022-08-21T00:38:05;100685.00;;;23.40
22828;BMP180;11580;52.562;13.418;2022-08-21T00:40:38;100698.00;;;23.30
22828;BMP180;11580;52.562;13.418;2022-08-21T00:43:09;100689.00;;;23.30
22828;BMP180;11580;52.562;13.418;2022-08-21T00:45:37;100674.00;;;23.30
22828;BMP180;11580;52.562;13.418;2022-08-21T00:48:06;100690.00;;;23.30
22828;BMP180;11580;52.562;13.418;2022-08-21T00:50:40;100694.00;;;23.30
22828;BMP180;11580;52.562;13.418;2022-08-21T00:53:11;100690.00;;;23.30
22828;BMP180;11580;52.562;13.418;2022-08-21T00:55:40;100687.00;;;23.30
22828;BMP180;11580;52.562;13.418;2022-08-21T00:58:11;100692.00;;;23.30
22828;BMP180;11580;52.562;13.418;2022-08-21T01:00:42;100687.00;;;23.30
22828;BMP180;11580;52.562;13.418;2022-08-21T01:03:15;100691.00;;;23.30
22828;BMP180;11580;52.562;13.418;2022-08-21T01:05:45;100691.00;;;23.40
22828;BMP180;11580;52.562;13.418;2022-08-21T01:08:15;100692.00;;;23.40
22828;BMP180;11580;52.562;13.418;2022-08-21T01:10:43;100693.00;;;23.30
22828;BMP180;11580;52.562;13.418;2022-08-21T01:13:13;100691.00;;;23.30
22828;BMP180;11580;52.562;13.418;2022-08-21T01:15:46;100687.00;;;23.30
22828;BMP180;11580;52.562;13.418;2022-08-21T01:18:17;100686.00;;;23.20
22828;BMP180;11580;52.562;13.418;2022-08-21T01:21:00;100678.00;;;23.20
22828;BMP180;11580;52.562;13.418;2022-08-21T01:23:27;100689.00;;;23.20
22828;BMP180;11580;52.562;13.418;2022-08-21T01:25:55;100686.00;;;23.10
22828;BMP180;11580;52.562;13.418;2022-08-21T01:28:24;100685.00;;;23.10
22828;BMP180;11580;52.562;13.418;2022-08-21T01:30:54;100677.00;;;23.10
22828;BMP180;11580;52.562;13.418;2022-08-21T01:33:24;100664.00;;;23.10
22828;BMP180;11580;52.562;13.418;2022-08-21T01:35:52;100688.00;;;23.00
22828;BMP180;11580;52.562;13.418;2022-08-21T01:38:20;100690.00;;;23.00
22828;BMP180;11580;52.562;13.418;2022-08-21T01:40:48;100691.00;;;23.00
22828;BMP180;11580;52.562;13.418;2022-08-21T01:43:15;100693.00;;;22.90
22828;BMP180;11580;52.562;13.418;2022-08-21T01:45:42;100691.00;;;22.90
22828;BMP180;11580;52.562;13.418;2022-08-21T01:48:10;100691.00;;;22.90
22828;BMP180;11580;52.562;13.418;2022-08-21T01:50:37;100690.00;;;22.80
22828;BMP180;11580;52.562;13.418;2022-08-21T01:53:05;100689.00;;;22.80
22828;BMP180;11580;52.562;13.418;2022-08-21T01:55:33;100691.00;;;22.80
22828;BMP180;11580;52.562;13.418;2022-08-21T01:58:01;100686.00;;;22.70
22828;BMP180;11580;52.562;13.418;2022-08-21T02:00:28;100684.00;;;22.70
22828;BMP180;11580;52.562;13.418;2022-08-21T02:02:56;100690.00;;;22.70
22828;BMP180;11580;52.562;13.418;2022-08-21T02:05:23;100695.00;;;22.60
22828;BMP180;11580;52.562;13.418;2022-08-21T02:07:52;100685.00;;;22.60
22828;BMP180;11580;52.562;13.418;2022-08-21T02:10:25;100701.00;;;22.60
22828;BMP180;11580;52.562;13.418;2022-08-21T02:12:56;100693.00;;;22.50
22828;BMP180;11580;52.562;13.418;2022-08-21T02:15:23;100693.00;;;22.50
22828;BMP180;11580;52.562;13.418;2022-08-21T02:17:53;100690.00;;;22.50
22828;BMP180;11580;52.562;13.418;2022-08-21T02:20:30;100682.00;;;22.50
22828;BMP180;11580;52.562;13.418;2022-08-21T02:22:58;100686.00;;;22.40
22828;BMP180;11580;52.562;13.418;2022-08-21T02:25:27;100683.00;;;22.40
22828;BMP180;11580;52.562;13.418;2022-08-21T02:27:56;100693.00;;;22.30
22828;BMP180;11580;52.562;13.418;2022-08-21T02:30:28;100687.00;;;22.30
22828;BMP180;11580;52.562;13.418;2022-08-21T02:32:56;100692.00;;;22.30
22828;BMP180;11580;52.562;13.418;2022-08-21T02:35:25;100686.00;;;22.30
22828;BMP180;11580;52.562;13.418;2022-08-21T02:37:55;100680.00;;;22.20
22828;BMP180;11580;52.562;13.418;2022-08-21T02:40:26;100691.00;;;22.20
22828;BMP180;11580;52.562;13.418;2022-08-21T02:42:54;100688.00;;;22.20
22828;BMP180;11580;52.562;13.418;2022-08-21T02:45:23;100687.00;;;22.10
22828;BMP180;11580;52.562;13.418;2022-08-21T02:47:51;100679.00;;;22.10
22828;BMP180;11580;52.562;13.418;2022-08-21T02:50:21;100683.00;;;22.10
22828;BMP180;11580;52.562;13.418;2022-08-21T02:52:49;100684.00;;;22.10
22828;BMP180;11580;52.562;13.418;2022-08-21T02:55:19;100683.00;;;22.00
22828;BMP180;11580;52.562;13.418;2022-08-21T02:57:47;100680.00;;;22.10
22828;BMP180;11580;52.562;13.418;2022-08-21T03:00:16;100681.00;;;22.00
22828;BMP180;11580;52.562;13.418;2022-08-21T03:02:45;100684.00;;;22.00
22828;BMP180;11580;52.562;13.418;2022-08-21T03:05:14;100687.00;;;22.00
22828;BMP180;11580;52.562;13.418;2022-08-21T03:07:43;100692.00;;;22.00
22828;BMP180;11580;52.562;13.418;2022-08-21T03:10:12;100685.00;;;22.00
22828;BMP180;11580;52.562;13.418;2022-08-21T03:12:40;100684.00;;;21.90
22828;BMP180;11580;52.562;13.418;2022-08-21T03:15:11;100689.00;;;21.90
22828;BMP180;11580;52.562;13.418;2022-08-21T03:17:39;100675.00;;;21.90
22828;BMP180;11580;52.562;13.418;2022-08-21T03:20:09;100671.00;;;21.80
22828;BMP180;11580;52.562;13.418;2022-08-21T03:22:37;100679.00;;;21.80
22828;BMP180;11580;52.562;13.418;2022-08-21T03:25:06;100685.00;;;21.80
22828;BMP180;11580;52.562;13.418;2022-08-21T03:27:34;100685.00;;;21.70
22828;BMP180;11580;52.562;13.418;2022-08-21T03:30:04;100688.00;;;21.70
22828;BMP180;11580;52.562;13.418;2022-08-21T03:32:31;100681.00;;;21.70
22828;BMP180;11580;52.562;13.418;2022-08-21T03:34:59;100680.00;;;21.70
22828;BMP180;11580;52.562;13.418;2022-08-21T03:37:29;100683.00;;;21.70
22828;BMP180;11580;52.562;13.418;2022-08-21T03:39:56;100677.00;;;21.60
22828;BMP180;11580;52.562;13.418;2022-08-21T03:42:23;100674.00;;;21.60
22828;BMP180;11580;52.562;13.418;2022-08-21T03:44:51;100679.00;;;21.60
22828;BMP180;11580;52.562;13.418;2022-08-21T03:47:18;100656.00;;;21.60
22828;BMP180;11580;52.562;13.418;2022-08-21T03:49:46;100685.00;;;21.50
22828;BMP180;11580;52.562;13.418;2022-08-21T03:52:13;100679.00;;;21.50
22828;BMP180;11580;52.562;13.418;2022-08-21T03:54:42;100649.00;;;21.50
22828;BMP180;11580;52.562;13.418;2022-08-21T03:57:09;100680.00;;;21.50
22828;BMP180;11580;52.562;13.418;2022-08-21T03:59:37;100682.00;;;21.50
22828;BMP180;11580;52.562;13.418;2022-08-21T04:02:07;100679.00;;;21.40
22828;BMP180;11580;52.562;13.418;2022-08-21T04:04:34;100684.00;;;21.40
22828;BMP180;11580;52.562;13.418;2022-08-21T04:07:03;100693.00;;;21.40
22828;BMP180;11580;52.562;13.418;2022-08-21T04:09:31;100680.00;;;21.40
22828;BMP180;11580;52.562;13.418;2022-08-21T04:12:00;100686.00;;;21.40
22828;BMP180;11580;52.562;13.418;2022-08-21T04:14:28;100687.00;;;21.30
22828;BMP180;11580;52.562;13.418;2022-08-21T04:16:56;100692.00;;;21.30
22828;BMP180;11580;52.562;13.418;2022-08-21T04:19:23;100694.00;;;21.30
22828;BMP180;11580;52.562;13.418;2022-08-21T04:21:50;100637.00;;;21.30
22828;BMP180;11580;52.562;13.418;2022-08-21T04:24:17;100696.00;;;21.30
22828;BMP180;11580;52.562;13.418;2022-08-21T04:26:45;100703.00;;;21.30
22828;BMP180;11580;52.562;13.418;2022-08-21T04:29:14;100695.00;;;21.30
22828;BMP180;11580;52.562;13.418;2022-08-21T04:31:41;100699.00;;;21.30
22828;BMP180;11580;52.562;13.418;2022-08-21T04:34:09;100691.00;;;21.30
22828;BMP180;11580;52.562;13.418;2022-08-21T04:36:37;100690.00;;;21.30
22828;BMP180;11580;52.562;13.418;2022-08-21T04:39:04;100691.00;;;21.30
22828;BMP180;11580;52.562;13.418;2022-08-21T04:41:31;100698.00;;;21.40
22828;BMP180;11580;52.562;13.418;2022-08-21T04:43:58;100698.00;;;21.40
22828;BMP180;11580;52.562;13.418;2022-08-21T04:46:28;100699.00;;;21.40
22828;BMP180;11580;52.562;13.418;2022-08-21T04:48:55;100695.00;;;21.40
22828;BMP180;11580;52.562;13.418;2022-08-21T04:51:27;100705.00;;;21.40
22828;BMP180;11580;52.562;13.418;2022-08-21T04:54:00;100701.00;;;21.40
22828;BMP180;11580;52.562;13.418;2022-08-21T04:56:33;100699.00;;;21.40
22828;BMP180;11580;52.562;13.418;2022-08-21T04:59:11;100698.00;;;21.50
22828;BMP180;11580;52.562;13.418;2022-08-21T05:01:42;100701.00;;;21.50
22828;BMP180;11580;52.562;13.418;2022-08-21T05:04:14;100696.00;;;21.50
22828;BMP180;11580;52.562;13.418;2022-08-21T05:06:47;100699.00;;;21.50
22828;BMP180;11580;52.562;13.418;2022-08-21T05:09:18;100695.00;;;21.50
22828;BMP180;11580;52.562;13.418;2022-08-21T05:11:47;100684.00;;;21.50
22828;BMP180;11580;52.562;13.418;2022-08-21T05:14:15;100699.00;;;21.60
22828;BMP180;11580;52.562;13.418;2022-08-21T05:16:44;100701.00;;;21.60
22828;BMP180;11580;52.562;13.418;2022-08-21T05:19:11;100703.00;;;21.60
22828;BMP180;11580;52.562;13.418;2022-08-21T05:21:43;100707.00;;;21.70
22828;BMP180;11580;52.562;13.418;2022-08-21T05:24:11;100711.00;;;21.70
22828;BMP180;11580;52.562;13.418;2022-08-21T05:26:38;100709.00;;;21.70
22828;BMP180;11580;52.562;13.418;2022-08-21T05:29:06;100714.00;;;21.70
22828;BMP180;11580;52.562;13.418;2022-08-21T05:31:33;100718.00;;;21.80
22828;BMP180;11580;52.562;13.418;2022-08-21T05:34:02;100723.00;;;21.80
22828;BMP180;11580;52.562;13.418;2022-08-21T05:36:30;100729.00;;;21.80
22828;BMP180;11580;52.562;13.418;2022-08-21T05:38:57;100728.00;;;21.90
22828;BMP180;11580;52.562;13.418;2022-08-21T05:41:24;100723.00;;;21.90
22828;BMP180;11580;52.562;13.418;2022-08-21T05:43:52;100728.00;;;21.90
22828;BMP180;11580;52.562;13.418;2022-08-21T05:46:19;100732.00;;;22.00
22828;BMP180;11580;52.562;13.418;2022-08-21T05:48:46;100728.00;;;22.00
22828;BMP180;11580;52.562;13.418;2022-08-21T05:51:16;100727.00;;;22.10
22828;BMP180;11580;52.562;13.418;2022-08-21T05:53:44;100731.00;;;22.10
22828;BMP180;11580;52.562;13.418;2022-08-21T05:56:12;100729.00;;;22.20
22828;BMP180;11580;52.562;13.418;2022-08-21T05:58:41;100729.00;;;22.20
22828;BMP180;11580;52.562;13.418;2022-08-21T06:01:09;100740.00;;;22.30
22828;BMP180;11580;52.562;13.418;2022-08-21T06:03:40;100735.00;;;22.30
22828;BMP180;11580;52.562;13.418;2022-08-21T06:06:08;100741.00;;;22.40
22828;BMP180;11580;52.562;13.418;2022-08-21T06:08:37;100736.00;;;22.40
22828;BMP180;11580;52.562;13.418;2022-08-21T06:11:05;100725.00;;;22.50
22828;BMP180;11580;52.562;13.418;2022-08-21T06:13:34;100715.00;;;22.50
22828;BMP180;11580;52.562;13.418;2022-08-21T06:16:04;100735.00;;;22.50
22828;BMP180;11580;52.562;13.418;2022-08-21T06:18:33;100737.00;;;22.60
22828;BMP180;11580;52.562;13.418;2022-08-21T06:21:01;100749.00;;;22.60
22828;BMP180;11580;52.562;13.418;2022-08-21T06:23:29;100740.00;;;22.60
22828;BMP180;11580;52.562;13.418;2022-08-21T06:25:57;100735.00;;;22.70
22828;BMP180;11580;52.562;13.418;2022-08-21T06:28:25;100739.00;;;22.70
22828;BMP180;11580;52.562;13.418;2022-08-21T06:30:52;100735.00;;;22.80
22828;BMP180;11580;52.562;13.418;2022-08-21T06:33:19;100735.00;;;22.90
22828;BMP180;11580;52.562;13.418;2022-08-21T06:35:47;100732.00;;;22.90
22828;BMP180;11580;52.562;13.418;2022-08-21T06:38:15;100747.00;;;23.00
22828;BMP180;11580;52.562;13.418;2022-08-21T06:40:42;100732.00;;;23.10
22828;BMP180;11580;52.562;13.418;2022-08-21T06:43:14;100744.00;;;23.20
22828;BMP180;11580;52.562;13.418;2022-08-21T06:45:42;100743.00;;;23.20
22828;BMP180;11580;52.562;13.418;2022-08-21T06:48:09;100738.00;;;23.30
22828;BMP180;11580;52.562;13.418;2022-08-21T06:50:37;100750.00;;;23.20
22828;BMP180;11580;52.562;13.418;2022-08-21T06:53:09;100746.00;;;23.40
22828;BMP180;11580;52.562;13.418;2022-08-21T06:55:37;100738.00;;;23.50
22828;BMP180;11580;52.562;13.418;2022-08-21T06:58:05;100740.00;;;23.60
22828;BMP180;11580;52.562;13.418;2022-08-21T07:00:35;100747.00;;;23.60
22828;BMP180;11580;52.562;13.418;2022-08-21T07:03:03;100745.00;;;23.70
22828;BMP180;11580;52.562;13.418;2022-08-21T07:05:30;100748.00;;;23.80
22828;BMP180;11580;52.562;13.418;2022-08-21T07:07:58;100741.00;;;23.80
22828;BMP180;11580;52.562;13.418;2022-08-21T07:10:27;100747.00;;;23.90
22828;BMP180;11580;52.562;13.418;2022-08-21T07:12:54;100744.00;;;24.00
22828;BMP180;11580;52.562;13.418;2022-08-21T07:15:22;100748.00;;;24.00
22828;BMP180;11580;52.562;13.418;2022-08-21T07:17:50;100745.00;;;24.10
22828;BMP180;11580;52.562;13.418;2022-08-21T07:20:18;100749.00;;;24.20
22828;BMP180;11580;52.562;13.418;2022-08-21T07:22:45;100738.00;;;24.20
22828;BMP180;11580;52.562;13.418;2022-08-21T07:25:12;100740.00;;;24.30
22828;BMP180;11580;52.562;13.418;2022-08-21T07:27:40;100735.00;;;24.30
22828;BMP180;11580;52.562;13.418;2022-08-21T07:30:08;100749.00;;;24.40
22828;BMP180;11580;52.562;13.418;2022-08-21T07:32:36;100741.00;;;24.40
22828;BMP180;11580;52.562;13.418;2022-08-21T07:35:05;100738.00;;;24.50
22828;BMP180;11580;52.562;13.418;2022-08-21T07:37:33;100739.00;;;24.50
22828;BMP180;11580;52.562;13.418;2022-08-21T07:40:01;100730.00;;;24.60
22828;BMP180;11580;52.562;13.418;2022-08-21T07:42:28;100742.00;;;24.70
22828;BMP180;11580;52.562;13.418;2022-08-21T07:44:56;100733.00;;;24.80
22828;BMP180;11580;52.562;13.418;2022-08-21T07:47:23;100743.00;;;24.90
22828;BMP180;11580;52.562;13.418;2022-08-21T07:49:50;100743.00;;;24.90
22828;BMP180;11580;52.562;13.418;2022-08-21T07:52:19;100748.00;;;25.00
22828;BMP180;11580;52.562;13.418;2022-08-21T07:54:46;100746.00;;;25.10
22828;BMP180;11580;52.562;13.418;2022-08-21T07:57:13;100746.00;;;25.20
22828;BMP180;11580;52.562;13.418;2022-08-21T07:59:41;100751.00;;;25.30
22828;BMP180;11580;52.562;13.418;2022-08-21T08:02:08;100748.00;;;25.30
22828;BMP180;11580;52.562;13.418;2022-08-21T08:04:36;100746.00;;;25.40
22828;BMP180;11580;52.562;13.418;2022-08-21T08:07:03;100748.00;;;25.30
22828;BMP180;11580;52.562;13.418;2022-08-21T08:09:32;100753.00;;;25.40
22828;BMP180;11580;52.562;13.418;2022-08-21T08:11:59;100748.00;;;25.40
22828;BMP180;11580;52.562;13.418;2022-08-21T08:14:26;100752.00;;;25.40
22828;BMP180;11580;52.562;13.418;2022-08-21T08:16:54;100748.00;;;25.50
22828;BMP180;11580;52.562;13.418;2022-08-21T08:19:21;100744.00;;;25.50
22828;BMP180;11580;52.562;13.418;2022-08-21T08:21:48;100748.00;;;25.50
22828;BMP180;11580;52.562;13.418;2022-08-21T08:24:15;100749.00;;;25.60
22828;BMP180;11580;52.562;13.418;2022-08-21T08:26:44;100739.00;;;25.60
22828;BMP180;11580;52.562;13.418;2022-08-21T08:29:11;100741.00;;;25.60
22828;BMP180;11580;52.562;13.418;2022-08-21T08:31:39;100746.00;;;25.60
22828;BMP180;11580;52.562;13.418;2022-08-21T08:34:06;100755.00;;;25.70
22828;BMP180;11580;52.562;13.418;2022-08-21T08:36:37;100758.00;;;25.70
22828;BMP180;11580;52.562;13.418;2022-08-21T08:39:05;100751.00;;;25.80
22828;BMP180;11580;52.562;13.418;2022-08-21T08:41:33;100754.00;;;25.90
22828;BMP180;11580;52.562;13.418;2022-08-21T08:44:05;100755.00;;;25.80
22828;BMP180;11580;52.562;13.418;2022-08-21T08:46:40;100759.00;;;25.90
22828;BMP180;11580;52.562;13.418;2022-08-21T08:49:15;100744.00;;;25.90
22828;BMP180;11580;52.562;13.418;2022-08-21T08:51:53;100751.00;;;26.00
22828;BMP180;11580;52.562;13.418;2022-08-21T08:54:31;100747.00;;;26.00
22828;BMP180;11580;52.562;13.418;2022-08-21T08:56:59;100758.00;;;26.00
22828;BMP180;11580;52.562;13.418;2022-08-21T08:59:40;100747.00;;;26.10
22828;BMP180;11580;52.562;13.418;2022-08-21T09:02:11;100736.00;;;26.10
22828;BMP180;11580;52.562;13.418;2022-08-21T09:04:39;100744.00;;;26.20
22828;BMP180;11580;52.562;13.418;2022-08-21T09:07:19;100740.00;;;26.30
22828;BMP180;11580;52.562;13.418;2022-08-21T09:10:04;100746.00;;;26.40
22828;BMP180;11580;52.562;13.418;2022-08-21T09:12:51;100750.00;;;26.50
22828;BMP180;11580;52.562;13.418;2022-08-21T09:15:30;100754.00;;;26.60
22828;BMP180;11580;52.562;13.418;2022-08-21T09:18:27;100748.00;;;26.70
22828;BMP180;11580;52.562;13.418;2022-08-21T09:21:11;100749.00;;;26.80
22828;BMP180;11580;52.562;13.418;2022-08-21T09:23:55;100752.00;;;26.90
22828;BMP180;11580;52.562;13.418;2022-08-21T09:26:30;100749.00;;;27.00
22828;BMP180;11580;52.562;13.418;2022-08-21T09:29:00;100752.00;;;27.10
22828;BMP180;11580;52.562;13.418;2022-08-21T09:31:32;100743.00;;;27.20
22828;BMP180;11580;52.562;13.418;2022-08-21T09:34:03;100748.00;;;27.40
22828;BMP180;11580;52.562;13.418;2022-08-21T09:36:44;100750.00;;;27.50
22828;BMP180;11580;52.562;13.418;2022-08-21T09:39:23;100754.00;;;27.50
22828;BMP180;11580;52.562;13.418;2022-08-21T09:41:57;100755.00;;;27.50
22828;BMP180;11580;52.562;13.418;2022-08-21T09:44:28;100749.00;;;27.60
22828;BMP180;11580;52.562;13.418;2022-08-21T09:46:57;100747.00;;;27.70
22828;BMP180;11580;52.562;13.418;2022-08-21T09:49:29;100753.00;;;27.70
22828;BMP180;11580;52.562;13.418;2022-08-21T09:51:58;100752.00;;;27.80
22828;BMP180;11580;52.562;13.418;2022-08-21T09:54:32;100736.00;;;27.80
22828;BMP180;11580;52.562;13.418;2022-08-21T09:57:14;100755.00;;;27.90
22828;BMP180;11580;52.562;13.418;2022-08-21T10:00:15;100757.00;;;28.00
22828;BMP180;11580;52.562;13.418;2022-08-21T10:02:46;100753.00;;;28.00
22828;BMP180;11580;52.562;13.418;2022-08-21T10:05:18;100757.00;;;28.10
22828;BMP180;11580;52.562;13.418;2022-08-21T10:07:46;100757.00;;;28.20
22828;BMP180;11580;52.562;13.418;2022-08-21T10:10:18;100768.00;;;28.20
22828;BMP180;11580;52.562;13.418;2022-08-21T10:12:55;100756.00;;;28.30
22828;BMP180;11580;52.562;13.418;2022-08-21T10:15:44;100760.00;;;28.40
22828;BMP180;11580;52.562;13.418;2022-08-21T10:18:26;100762.00;;;28.40
22828;BMP180;11580;52.562;13.418;2022-08-21T10:21:02;100763.00;;;28.50
22828;BMP180;11580;52.562;13.418;2022-08-21T10:23:51;100757.00;;;28.50
22828;BMP180;11580;52.562;13.418;2022-08-21T10:26:33;100750.00;;;28.50
22828;BMP180;11580;52.562;13.418;2022-08-21T10:29:12;100765.00;;;28.60
22828;BMP180;11580;52.562;13.418;2022-08-21T10:31:52;100768.00;;;28.60
22828;BMP180;11580;52.562;13.418;2022-08-21T10:34:38;100763.00;;;28.60
22828;BMP180;11580;52.562;13.418;2022-08-21T10:37:25;100766.00;;;28.50
22828;BMP180;11580;52.562;13.418;2022-08-21T10:40:09;100769.00;;;28.60
22828;BMP180;11580;52.562;13.418;2022-08-21T10:42:51;100748.00;;;28.60
22828;BMP180;11580;52.562;13.418;2022-08-21T10:45:35;100767.00;;;28.60
22828;BMP180;11580;52.562;13.418;2022-08-21T10:48:06;100763.00;;;28.60
22828;BMP180;11580;52.562;13.418;2022-08-21T10:50:44;100773.00;;;28.60
22828;BMP180;11580;52.562;13.418;2022-08-21T10:53:51;100769.00;;;28.60
22828;BMP180;11580;52.562;13.418;2022-08-21T10:56:24;100775.00;;;28.60
22828;BMP180;11580;52.562;13.418;2022-08-21T10:59:19;100768.00;;;28.60
22828;BMP180;11580;52.562;13.418;2022-08-21T11:01:54;100759.00;;;28.60
22828;BMP180;11580;52.562;13.418;2022-08-21T11:04:30;100764.00;;;28.70
22828;BMP180;11580;52.562;13.418;2022-08-21T11:07:06;100769.00;;;28.70
22828;BMP180;11580;52.562;13.418;2022-08-21T11:09:43;100763.00;;;28.70
22828;BMP180;11580;52.562;13.418;2022-08-21T11:12:24;100765.00;;;28.70
22828;BMP180;11580;52.562;13.418;2022-08-21T11:15:03;100767.00;;;28.70
22828;BMP180;11580;52.562;13.418;2022-08-21T11:17:38;100769.00;;;28.70
22828;BMP180;11580;52.562;13.418;2022-08-21T11:20:17;100773.00;;;28.70
22828;BMP180;11580;52.562;13.418;2022-08-21T11:22:58;100773.00;;;28.70
22828;BMP180;11580;52.562;13.418;2022-08-21T11:25:34;100770.00;;;28.70
22828;BMP180;11580;52.562;13.418;2022-08-21T11:28:09;100767.00;;;28.70
22828;BMP180;11580;52.562;13.418;2022-08-21T11:30:52;100753.00;;;28.70
22828;BMP180;11580;52.562;13.418;2022-08-21T11:33:39;100776.00;;;28.60
22828;BMP180;11580;52.562;13.418;2022-08-21T11:36:18;100763.00;;;28.50
22828;BMP180;11580;52.562;13.418;2022-08-21T11:38:57;100761.00;;;28.50
22828;BMP180;11580;52.562;13.418;2022-08-21T11:41:32;100760.00;;;28.50
22828;BMP180;11580;52.562;13.418;2022-08-21T11:44:11;100753.00;;;28.60
22828;BMP180;11580;52.562;13.418;2022-08-21T11:46:49;100750.00;;;28.70
22828;BMP180;11580;52.562;13.418;2022-08-21T11:49:36;100713.00;;;28.80
22828;BMP180;11580;52.562;13.418;2022-08-21T11:52:14;100753.00;;;28.80
22828;BMP180;11580;52.562;13.418;2022-08-21T11:54:52;100747.00;;;28.90
22828;BMP180;11580;52.562;13.418;2022-08-21T11:57:24;100749.00;;;29.00
22828;BMP180;11580;52.562;13.418;2022-08-21T12:00:01;100755.00;;;29.10
22828;BMP180;11580;52.562;13.418;2022-08-21T12:02:45;100752.00;;;29.10
22828;BMP180;11580;52.562;13.418;2022-08-21T12:05:27;100762.00;;;29.00
22828;BMP180;11580;52.562;13.418;2022-08-21T12:08:08;100748.00;;;29.00
22828;BMP180;11580;52.562;13.418;2022-08-21T12:10:45;100752.00;;;29.10
22828;BMP180;11580;52.562;13.418;2022-08-21T12:13:24;100746.00;;;29.10
22828;BMP180;11580;52.562;13.418;2022-08-21T12:15:52;100745.00;;;29.10
22828;BMP180;11580;52.562;13.418;2022-08-21T12:18:31;100753.00;;;29.10
22828;BMP180;11580;52.562;13.418;2022-08-21T12:21:17;100739.00;;;29.10
22828;BMP180;11580;52.562;13.418;2022-08-21T12:23:57;100745.00;;;29.20
22828;BMP180;11580;52.562;13.418;2022-08-21T12:26:32;100739.00;;;29.20
22828;BMP180;11580;52.562;13.418;2022-08-21T12:29:15;100730.00;;;29.20
22828;BMP180;11580;52.562;13.418;2022-08-21T12:31:55;100741.00;;;29.20
22828;BMP180;11580;52.562;13.418;2022-08-21T12:34:31;100749.00;;;29.30
22828;BMP180;11580;52.562;13.418;2022-08-21T12:37:03;100757.00;;;29.30
22828;BMP180;11580;52.562;13.418;2022-08-21T12:39:36;100751.00;;;29.30
22828;BMP180;11580;52.562;13.418;2022-08-21T12:42:16;100752.00;;;29.30
22828;BMP180;11580;52.562;13.418;2022-08-21T12:44:50;100748.00;;;29.30
22828;BMP180;11580;52.562;13.418;2022-08-21T12:47:29;100730.00;;;29.30
22828;BMP180;11580;52.562;13.418;2022-08-21T12:50:05;100742.00;;;29.30
22828;BMP180;11580;52.562;13.418;2022-08-21T12:52:39;100743.00;;;29.30
22828;BMP180;11580;52.562;13.418;2022-08-21T12:55:11;100742.00;;;29.30
22828;BMP180;11580;52.562;13.418;2022-08-21T12:57:41;100737.00;;;29.20
22828;BMP180;11580;52.562;13.418;2022-08-21T13:00:12;100729.00;;;29.20
22828;BMP180;11580;52.562;13.418;2022-08-21T13:02:47;100732.00;;;29.20
22828;BMP180;11580;52.562;13.418;2022-08-21T13:05:21;100735.00;;;29.20
22828;BMP180;11580;52.562;13.418;2022-08-21T13:07:50;100724.00;;;29.10
22828;BMP180;11580;52.562;13.418;2022-08-21T13:10:23;100731.00;;;29.10
22828;BMP180;11580;52.562;13.418;2022-08-21T13:12:55;100739.00;;;29.10
22828;BMP180;11580;52.562;13.418;2022-08-21T13:15:29;100735.00;;;29.00
22828;BMP180;11580;52.562;13.418;2022-08-21T13:17:57;100729.00;;;28.90
22828;BMP180;11580;52.562;13.418;2022-08-21T13:20:31;100727.00;;;28.90
22828;BMP180;11580;52.562;13.418;2022-08-21T13:23:00;100734.00;;;28.80
22828;BMP180;11580;52.562;13.418;2022-08-21T13:25:34;100724.00;;;28.80
22828;BMP180;11580;52.562;13.418;2022-08-21T13:28:08;100734.00;;;28.70
22828;BMP180;11580;52.562;13.418;2022-08-21T13:30:41;100735.00;;;28.60
22828;BMP180;11580;52.562;13.418;2022-08-21T13:33:12;100749.00;;;28.60
22828;BMP180;11580;52.562;13.418;2022-08-21T13:35:51;100740.00;;;28.50
22828;BMP180;11580;52.562;13.418;2022-08-21T13:38:22;100738.00;;;28.50
22828;BMP180;11580;52.562;13.418;2022-08-21T13:40:55;100728.00;;;28.40
22828;BMP180;11580;52.562;13.418;2022-08-21T13:43:31;100735.00;;;28.40
22828;BMP180;11580;52.562;13.418;2022-08-21T13:46:00;100728.00;;;28.40
22828;BMP180;11580;52.562;13.418;2022-08-21T13:48:33;100731.00;;;28.50
22828;BMP180;11580;52.562;13.418;2022-08-21T13:51:02;100711.00;;;28.50
22828;BMP180;11580;52.562;13.418;2022-08-21T13:53:33;100732.00;;;28.60
22828;BMP180;11580;52.562;13.418;2022-08-21T13:56:03;100739.00;;;28.60
22828;BMP180;11580;52.562;13.418;2022-08-21T13:58:42;100721.00;;;28.60
22828;BMP180;11580;52.562;13.418;2022-08-21T14:01:21;100732.00;;;28.60
22828;BMP180;11580;52.562;13.418;2022-08-21T14:03:53;100727.00;;;28.70
22828;BMP180;11580;52.562;13.418;2022-08-21T14:06:27;100742.00;;;28.70
22828;BMP180;11580;52.562;13.418;2022-08-21T14:08:59;100734.00;;;28.80